Terminal Aerodrome Forecast
Issued by NWS Boston, MA

Home | Current Version | Previous Version | Text Only | Print | Product List | Glossary On
Versions: 1 2 3 4 5 6 7 8 9 10 11 12 13 14 15 16 17 18 19 20 21 22 23 24 25 26 27 28 29 30 31 32 33 34 35
000
FTUS41 KBOX 301738
TAFORH
TAF
KORH 301738Z 3018/3118 22015G25KT P6SM SCT030
     FM310000 21014G23KT P6SM SCT250
     FM310300 22014KT P6SM BKN090
     FM310600 23013KT P6SM BKN025
     FM310900 23011KT P6SM OVC008
     FM311200 24012KT P6SM -SHRA OVC008
     FM311500 25007KT 5SM -SHRA OVC008
     FM311700 35007KT 5SM -SHRA OVC008=

USA.gov is the U.S. government's official web portal to all federal, state and local government web resources and services.